Stations météo

réclame
Mon MeteoGroup
Cairngorm, Grande-Bretagne (3065): Température de l'air & dewpoint: 19.05.2018 11:00:00 - 25.05.2018 11:00:00 (BST)Cairngorm, Grande-Bretagne (3065): Vitesse du vent & gusts: 19.05.2018 11:00:00 - 25.05.2018 11:00:00 (BST)Cairngorm, Grande-Bretagne (3065): Direction du vent: 19.05.2018 11:00:00 - 25.05.2018 11:00:00 (BST)
Date & Time tt [°C] td [°C] ff [km/h] ff [knt] fx [km/h] fx [knt] dd
25.05.2018 11:00:00 8,3 4,6 11 6 - - ENE
25.05.2018 10:00:00 7,9 4,9 15 8 - - NE
25.05.2018 09:00:00 9,0 2,8 16 9 - - ENE
25.05.2018 08:00:00 9,1 2,6 15 8 - - ENE
25.05.2018 07:00:00 8,6 1,9 13 7 - - ENE
25.05.2018 06:00:00 8,3 2,1 11 6 - - ENE
25.05.2018 05:00:00 7,9 4,1 - - - - -
25.05.2018 04:00:00 7,5 4,9 5 3 - - NW
25.05.2018 03:00:00 7,7 4,6 4 2 - - NW
25.05.2018 02:00:00 7,9 4,8 - - - - -
25.05.2018 01:00:00 7,5 4,6 - - - - -
25.05.2018 00:00:00 7,6 3,6 - - - - -
24.05.2018 23:00:00 7,8 3,5 - - - - -
24.05.2018 22:00:00 7,7 4,1 26 14 - - S
24.05.2018 21:00:00 8,5 3,8 31 17 - - S
24.05.2018 20:00:00 9,4 1,4 35 19 48 26 S
24.05.2018 19:00:00 10,1 -0,2 39 21 48 26 S
24.05.2018 18:00:00 10,3 0,4 37 20 54 29 S
24.05.2018 17:00:00 10,5 1,7 39 21 57 31 S
24.05.2018 16:00:00 11,3 2,4 44 24 63 34 S
24.05.2018 15:00:00 11,0 0,5 41 22 57 31 S
24.05.2018 14:00:00 11,0 0,2 41 22 59 32 S
24.05.2018 13:00:00 11,4 1,7 39 21 54 29 S
24.05.2018 12:00:00 10,7 0,3 37 20 46 25 S
24.05.2018 11:00:00 10,7 -2,6 28 15 - - S
24.05.2018 10:00:00 10,1 -3,4 29 16 48 26 S
24.05.2018 09:00:00 9,9 -9,3 37 20 48 26 S
24.05.2018 08:00:00 9,1 -9,3 28 15 - - S
24.05.2018 07:00:00 8,7 -11,6 26 14 - - S
24.05.2018 06:00:00 9,2 -12,5 34 18 46 25 S
24.05.2018 05:00:00 8,3 -12,1 - - - - -
24.05.2018 04:00:00 8,3 -13,2 31 17 - - S
24.05.2018 03:00:00 7,2 -10,0 - - - - -
24.05.2018 02:00:00 7,1 -2,8 - - - - -
24.05.2018 01:00:00 7,6 1,0 - - - - -
24.05.2018 00:00:00 7,1 0,7 - - - - -
23.05.2018 23:00:00 7,4 2,6 - - - - -
23.05.2018 22:00:00 7,4 3,6 - - - - -
23.05.2018 21:00:00 8,3 3,1 - - - - -
23.05.2018 20:00:00 9,0 3,2 - - - - -
23.05.2018 19:00:00 10,4 3,7 24 13 - - SW
23.05.2018 18:00:00 10,4 3,8 - - - - -
23.05.2018 17:00:00 11,7 3,1 - - - - -
23.05.2018 16:00:00 10,4 3,7 18 10 - - S
23.05.2018 15:00:00 10,7 2,1 9 5 - - SW
23.05.2018 14:00:00 10,8 0,1 9 5 - - SW
23.05.2018 13:00:00 9,9 1,3 9 5 - - SSW
23.05.2018 12:00:00 8,0 0,9 11 6 - - SSE
23.05.2018 11:00:00 5,5 0,6 8 4 - - SSW
23.05.2018 10:00:00 4,5 -1,0 4 2 - - WSW
23.05.2018 09:00:00 4,0 0,7 5 3 - - SE
23.05.2018 08:00:00 3,0 0,8 11 6 - - WSW
23.05.2018 07:00:00 2,9 1,4 11 6 - - W
23.05.2018 06:00:00 2,7 2,7 21 11 - - W
23.05.2018 05:00:00 2,8 2,8 22 12 - - W
23.05.2018 04:00:00 2,9 2,9 21 11 - - W
23.05.2018 03:00:00 2,9 2,9 22 12 - - W
23.05.2018 02:00:00 3,2 3,2 15 8 - - W
23.05.2018 01:00:00 3,1 3,1 15 8 - - W
23.05.2018 00:00:00 3,0 3,0 15 8 - - W
22.05.2018 23:00:00 3,1 3,1 16 9 - - W
22.05.2018 22:00:00 3,3 3,3 15 8 - - W
22.05.2018 21:00:00 3,1 2,9 11 6 - - SW
22.05.2018 20:00:00 2,9 1,3 15 8 - - S
22.05.2018 19:00:00 2,7 1,2 5 3 - - ESE
22.05.2018 18:00:00 2,4 1,5 13 7 - - E
22.05.2018 17:00:00 2,8 2,0 16 9 - - E
22.05.2018 16:00:00 2,7 1,8 16 9 - - E
22.05.2018 15:00:00 3,1 2,4 18 10 - - E
22.05.2018 14:00:00 2,5 1,5 24 13 - - E
22.05.2018 13:00:00 1,9 0,3 24 13 - - E
22.05.2018 12:00:00 1,1 -0,5 29 16 - - E
22.05.2018 11:00:00 0,1 -0,4 34 18 - - E
22.05.2018 10:00:00 0,1 0,1 28 15 - - ENE
22.05.2018 09:00:00 0,0 0,0 34 18 46 25 E
22.05.2018 08:00:00 -0,5 -0,5 35 19 46 25 ENE
22.05.2018 07:00:00 -0,7 -0,7 37 20 - - ENE
22.05.2018 06:00:00 -0,8 -0,8 37 20 46 25 ENE
22.05.2018 05:00:00 -0,8 -0,8 34 18 - - NE
22.05.2018 04:00:00 -0,7 -0,7 31 17 - - NE
22.05.2018 03:00:00 -0,5 -0,5 31 17 - - NE
22.05.2018 02:00:00 -0,4 -0,4 34 18 - - NNE
22.05.2018 01:00:00 -0,2 -0,2 31 17 - - NNE
22.05.2018 00:00:00 -0,6 -0,6 35 19 - - NE
21.05.2018 23:00:00 -0,4 -0,4 31 17 - - NE
21.05.2018 22:00:00 0,1 0,1 31 17 - - NNE
21.05.2018 21:00:00 0,4 0,4 22 12 - - NNE
21.05.2018 20:00:00 0,9 0,9 21 11 - - NE
21.05.2018 19:00:00 2,0 2,0 - - - - -
21.05.2018 18:00:00 4,7 4,2 8 4 - - W
21.05.2018 17:00:00 6,2 5,7 21 11 57 31 SW
21.05.2018 16:00:00 7,8 4,1 44 24 67 36 SSW
21.05.2018 15:00:00 7,8 5,1 48 26 65 35 SSW
21.05.2018 14:00:00 7,6 4,4 50 27 80 43 S
21.05.2018 13:00:00 7,7 5,8 70 38 85 46 S
21.05.2018 12:00:00 8,1 8,0 68 37 87 47 S
21.05.2018 11:00:00 7,9 7,8 57 31 83 45 S
21.05.2018 10:00:00 7,5 7,5 67 36 - - S
21.05.2018 09:00:00 6,4 6,4 67 36 93 50 S
21.05.2018 08:00:00 6,4 6,4 74 40 - - S
21.05.2018 07:00:00 6,1 6,0 78 42 94 51 S
21.05.2018 06:00:00 5,6 5,6 70 38 - - S
21.05.2018 05:00:00 5,7 5,7 74 40 94 51 S
21.05.2018 04:00:00 6,4 6,4 76 41 96 52 SSW
21.05.2018 03:00:00 6,0 6,0 70 38 91 49 SSW
21.05.2018 02:00:00 6,0 6,0 61 33 72 39 S
21.05.2018 01:00:00 6,0 6,0 55 30 67 36 S
21.05.2018 00:00:00 6,0 5,9 42 23 61 33 S
20.05.2018 23:00:00 5,7 5,7 50 27 61 33 S
20.05.2018 22:00:00 6,1 6,1 52 28 67 36 S
20.05.2018 21:00:00 6,4 6,4 54 29 70 38 S
20.05.2018 20:00:00 6,6 6,6 55 30 70 38 S
20.05.2018 19:00:00 6,6 6,6 59 32 74 40 S
20.05.2018 18:00:00 6,8 6,8 65 35 85 46 S
20.05.2018 17:00:00 6,4 6,4 65 35 98 53 S
20.05.2018 16:00:00 6,3 6,3 81 44 109 59 S
20.05.2018 15:00:00 5,9 5,9 80 43 106 57 S
20.05.2018 14:00:00 6,2 6,2 76 41 - - S
20.05.2018 13:00:00 5,8 5,8 70 38 98 53 S
20.05.2018 12:00:00 5,9 5,9 72 39 94 51 SSW
20.05.2018 11:00:00 5,3 5,3 74 40 102 55 S
20.05.2018 10:00:00 5,1 5,1 81 44 107 58 S
20.05.2018 09:00:00 4,9 4,9 94 51 115 62 SSW
20.05.2018 08:00:00 5,5 5,5 83 45 113 61 SSW
20.05.2018 07:00:00 5,2 5,2 94 51 119 64 SSW
20.05.2018 06:00:00 4,8 4,8 91 49 115 62 SSW
20.05.2018 05:00:00 4,4 4,4 91 49 113 61 SSW
20.05.2018 04:00:00 4,6 4,5 89 48 104 56 S
20.05.2018 03:00:00 4,7 3,5 83 45 104 56 S
20.05.2018 02:00:00 4,6 3,9 76 41 89 48 S
20.05.2018 01:00:00 4,9 3,2 74 40 96 52 S
20.05.2018 00:00:00 5,7 2,6 83 45 106 57 SSW
19.05.2018 23:00:00 5,3 2,4 89 48 106 57 SSW
19.05.2018 22:00:00 6,2 2,8 85 46 104 56 S
19.05.2018 21:00:00 6,5 2,2 83 45 100 54 S
19.05.2018 20:00:00 7,3 2,4 74 40 87 47 S
19.05.2018 19:00:00 7,9 3,2 63 34 80 43 S
19.05.2018 18:00:00 8,6 2,9 68 37 - - S
19.05.2018 17:00:00 8,6 3,1 72 39 85 46 S
19.05.2018 16:00:00 8,4 2,1 70 38 91 49 S
19.05.2018 15:00:00 8,9 3,0 65 35 83 45 S
19.05.2018 14:00:00 8,2 2,0 61 33 81 44 S
19.05.2018 13:00:00 8,0 1,9 65 35 81 44 S
19.05.2018 12:00:00 7,5 2,2 52 28 76 41 S
19.05.2018 11:00:00 6,9 2,4 57 31 68 37 S

tt = Température de l'air
td = dewpoint
ff = Vitesse du vent
fx = gusts
dd = Direction du vent

stations d'obs. à proximité